sensor_id;sensor_type;location;lat;lon;timestamp;pressure;altitude;pressure_sealevel;temperature;humidity
6032;BME280;3044;43.232;27.972;2022-07-29T00:01:50;45056.69;;;-143.84;69.16
6032;BME280;3044;43.232;27.972;2022-07-29T00:04:18;45043.34;;;-143.84;68.95
6032;BME280;3044;43.232;27.972;2022-07-29T00:06:45;45039.53;;;-143.84;68.86
6032;BME280;3044;43.232;27.972;2022-07-29T00:09:12;45020.50;;;-143.84;68.55
6032;BME280;3044;43.232;27.972;2022-07-29T00:11:40;45012.88;;;-143.84;68.53
6032;BME280;3044;43.232;27.972;2022-07-29T00:14:08;45039.53;;;-143.84;68.49
6032;BME280;3044;43.232;27.972;2022-07-29T00:16:36;45033.84;;;-143.84;68.51
6032;BME280;3044;43.232;27.972;2022-07-29T00:19:03;45035.75;;;-143.84;68.26
6032;BME280;3044;43.232;27.972;2022-07-29T00:21:30;45031.94;;;-143.84;68.52
6032;BME280;3044;43.232;27.972;2022-07-29T00:23:57;45041.44;;;-143.84;68.58
6032;BME280;3044;43.232;27.972;2022-07-29T00:26:25;45028.13;;;-143.84;68.35
6032;BME280;3044;43.232;27.972;2022-07-29T00:28:57;45033.84;;;-143.84;68.19
6032;BME280;3044;43.232;27.972;2022-07-29T00:31:25;45010.97;;;-143.84;68.29
6032;BME280;3044;43.232;27.972;2022-07-29T00:33:53;45022.41;;;-143.84;68.53
6032;BME280;3044;43.232;27.972;2022-07-29T00:36:20;45039.53;;;-143.84;68.41
6032;BME280;3044;43.232;27.972;2022-07-29T00:38:46;45020.50;;;-143.84;68.42
6032;BME280;3044;43.232;27.972;2022-07-29T00:41:14;45022.41;;;-143.84;68.53
6032;BME280;3044;43.232;27.972;2022-07-29T00:43:41;45030.03;;;-143.84;68.44
6032;BME280;3044;43.232;27.972;2022-07-29T00:46:08;45052.88;;;-143.84;68.78
6032;BME280;3044;43.232;27.972;2022-07-29T00:48:37;45010.97;;;-143.84;68.96
6032;BME280;3044;43.232;27.972;2022-07-29T00:51:06;45031.94;;;-143.84;68.98
6032;BME280;3044;43.232;27.972;2022-07-29T00:53:36;45026.22;;;-143.84;68.83
6032;BME280;3044;43.232;27.972;2022-07-29T00:56:04;45045.25;;;-143.84;68.45
6032;BME280;3044;43.232;27.972;2022-07-29T00:58:31;45033.84;;;-143.84;68.73
6032;BME280;3044;43.232;27.972;2022-07-29T01:00:58;45039.53;;;-143.84;69.00
6032;BME280;3044;43.232;27.972;2022-07-29T01:03:25;45041.44;;;-143.84;68.45
6032;BME280;3044;43.232;27.972;2022-07-29T01:05:54;45028.13;;;-143.84;68.34
6032;BME280;3044;43.232;27.972;2022-07-29T01:08:23;45037.66;;;-143.84;68.05
6032;BME280;3044;43.232;27.972;2022-07-29T01:10:51;45022.41;;;-143.84;68.30
6032;BME280;3044;43.232;27.972;2022-07-29T01:13:19;45037.66;;;-143.84;68.41
6032;BME280;3044;43.232;27.972;2022-07-29T01:15:49;45028.13;;;-143.84;68.26
6032;BME280;3044;43.232;27.972;2022-07-29T01:18:24;45043.34;;;-143.84;67.81
6032;BME280;3044;43.232;27.972;2022-07-29T01:21:23;45043.34;;;-143.84;68.18
6032;BME280;3044;43.232;27.972;2022-07-29T01:24:11;45028.13;;;-143.84;67.85
6032;BME280;3044;43.232;27.972;2022-07-29T01:26:45;45016.69;;;-143.84;67.46
6032;BME280;3044;43.232;27.972;2022-07-29T01:29:21;45043.34;;;-143.84;66.98
6032;BME280;3044;43.232;27.972;2022-07-29T01:31:54;45031.94;;;-143.84;67.03
6032;BME280;3044;43.232;27.972;2022-07-29T01:34:27;45033.84;;;-143.84;66.57
6032;BME280;3044;43.232;27.972;2022-07-29T01:37:05;45031.94;;;-143.84;66.19
6032;BME280;3044;43.232;27.972;2022-07-29T01:39:36;45039.53;;;-143.84;66.19
6032;BME280;3044;43.232;27.972;2022-07-29T01:42:09;45014.78;;;-143.84;65.88
6032;BME280;3044;43.232;27.972;2022-07-29T01:44:46;45062.41;;;-143.84;65.41
6032;BME280;3044;43.232;27.972;2022-07-29T01:47:19;45024.31;;;-143.84;64.71
6032;BME280;3044;43.232;27.972;2022-07-29T01:49:51;45022.41;;;-143.84;64.63
6032;BME280;3044;43.232;27.972;2022-07-29T01:52:23;45012.88;;;-143.84;64.72
6032;BME280;3044;43.232;27.972;2022-07-29T01:54:55;45058.59;;;-143.84;64.79
6032;BME280;3044;43.232;27.972;2022-07-29T01:57:27;45037.66;;;-143.84;64.73
6032;BME280;3044;43.232;27.972;2022-07-29T01:59:57;45045.25;;;-143.84;64.50
6032;BME280;3044;43.232;27.972;2022-07-29T02:02:26;45039.53;;;-143.84;64.19
6032;BME280;3044;43.232;27.972;2022-07-29T02:04:55;45049.06;;;-143.84;64.28
6032;BME280;3044;43.232;27.972;2022-07-29T02:07:24;45022.41;;;-143.84;63.73
6032;BME280;3044;43.232;27.972;2022-07-29T02:09:54;45033.84;;;-143.84;63.88
6032;BME280;3044;43.232;27.972;2022-07-29T02:12:24;45052.88;;;-143.84;64.05
6032;BME280;3044;43.232;27.972;2022-07-29T02:14:53;45020.50;;;-143.84;64.14
6032;BME280;3044;43.232;27.972;2022-07-29T02:17:26;45041.44;;;-143.84;64.50
6032;BME280;3044;43.232;27.972;2022-07-29T02:19:57;45060.50;;;-143.84;64.05
6032;BME280;3044;43.232;27.972;2022-07-29T02:22:27;45047.16;;;-143.84;64.63
6032;BME280;3044;43.232;27.972;2022-07-29T02:24:55;45037.66;;;-143.84;64.79
6032;BME280;3044;43.232;27.972;2022-07-29T02:27:24;45049.06;;;-143.84;65.82
6032;BME280;3044;43.232;27.972;2022-07-29T02:29:53;45056.69;;;-143.84;66.64
6032;BME280;3044;43.232;27.972;2022-07-29T02:32:24;45058.59;;;-143.84;67.52
6032;BME280;3044;43.232;27.972;2022-07-29T02:34:52;45037.66;;;-143.84;67.77
6032;BME280;3044;43.232;27.972;2022-07-29T02:37:20;45043.34;;;-143.84;68.23
6032;BME280;3044;43.232;27.972;2022-07-29T02:39:48;45049.06;;;-143.84;68.92
6032;BME280;3044;43.232;27.972;2022-07-29T02:42:19;45020.50;;;-143.84;69.57
6032;BME280;3044;43.232;27.972;2022-07-29T02:44:48;45026.22;;;-143.84;70.27
6032;BME280;3044;43.232;27.972;2022-07-29T02:47:19;45012.88;;;-143.84;71.25
6032;BME280;3044;43.232;27.972;2022-07-29T02:49:53;45037.66;;;-143.84;71.94
6032;BME280;3044;43.232;27.972;2022-07-29T02:52:26;45030.03;;;-143.84;72.83
6032;BME280;3044;43.232;27.972;2022-07-29T02:54:58;45062.41;;;-143.84;73.48
6032;BME280;3044;43.232;27.972;2022-07-29T02:57:31;45035.75;;;-143.84;73.99
6032;BME280;3044;43.232;27.972;2022-07-29T03:00:03;45068.13;;;-143.84;74.90
6032;BME280;3044;43.232;27.972;2022-07-29T03:02:34;45047.16;;;-143.84;75.10
6032;BME280;3044;43.232;27.972;2022-07-29T03:05:05;45037.66;;;-143.84;75.70
6032;BME280;3044;43.232;27.972;2022-07-29T03:07:34;45035.75;;;-143.84;75.96
6032;BME280;3044;43.232;27.972;2022-07-29T03:10:03;45062.41;;;-143.84;76.32
6032;BME280;3044;43.232;27.972;2022-07-29T03:12:31;45047.16;;;-143.84;76.88
6032;BME280;3044;43.232;27.972;2022-07-29T03:14:59;45050.97;;;-143.84;77.28
6032;BME280;3044;43.232;27.972;2022-07-29T03:17:27;45068.13;;;-143.84;77.34
6032;BME280;3044;43.232;27.972;2022-07-29T03:19:56;45035.75;;;-143.84;77.53
6032;BME280;3044;43.232;27.972;2022-07-29T03:22:30;45035.75;;;-143.84;77.18
6032;BME280;3044;43.232;27.972;2022-07-29T03:25:07;45058.59;;;-143.84;77.11
6032;BME280;3044;43.232;27.972;2022-07-29T03:27:35;45041.44;;;-143.84;77.06
6032;BME280;3044;43.232;27.972;2022-07-29T03:30:02;45066.22;;;-143.84;76.92
6032;BME280;3044;43.232;27.972;2022-07-29T03:32:30;45060.50;;;-143.84;76.88
6032;BME280;3044;43.232;27.972;2022-07-29T03:34:57;45050.97;;;-143.84;76.49
6032;BME280;3044;43.232;27.972;2022-07-29T03:37:24;45041.44;;;-143.84;76.28
6032;BME280;3044;43.232;27.972;2022-07-29T03:39:55;45031.94;;;-143.84;75.58
6032;BME280;3044;43.232;27.972;2022-07-29T03:42:25;45033.84;;;-143.84;75.21
6032;BME280;3044;43.232;27.972;2022-07-29T03:44:54;45052.88;;;-143.84;74.41
6032;BME280;3044;43.232;27.972;2022-07-29T03:47:24;45024.31;;;-143.84;74.21
6032;BME280;3044;43.232;27.972;2022-07-29T03:49:54;45047.16;;;-143.84;72.96
6032;BME280;3044;43.232;27.972;2022-07-29T03:52:23;45007.19;;;-143.84;70.34
6032;BME280;3044;43.232;27.972;2022-07-29T03:54:51;44990.03;;;-143.84;67.72
6032;BME280;3044;43.232;27.972;2022-07-29T03:57:20;45024.31;;;-143.84;63.72
6032;BME280;3044;43.232;27.972;2022-07-29T03:59:51;44976.72;;;-143.84;60.49
6032;BME280;3044;43.232;27.972;2022-07-29T04:02:18;44969.09;;;-143.84;57.51
6032;BME280;3044;43.232;27.972;2022-07-29T04:04:46;44980.53;;;-143.84;55.23
6032;BME280;3044;43.232;27.972;2022-07-29T04:07:14;44972.91;;;-143.84;53.02
6032;BME280;3044;43.232;27.972;2022-07-29T04:09:42;44946.25;;;-143.84;51.61
6032;BME280;3044;43.232;27.972;2022-07-29T04:12:09;44971.00;;;-143.84;50.14
6032;BME280;3044;43.232;27.972;2022-07-29T04:14:38;44911.97;;;-143.84;48.80
6032;BME280;3044;43.232;27.972;2022-07-29T04:17:05;44957.66;;;-143.84;47.73
6032;BME280;3044;43.232;27.972;2022-07-29T04:19:33;44940.53;;;-143.84;46.64
6032;BME280;3044;43.232;27.972;2022-07-29T04:22:01;44927.19;;;-143.84;46.01
6032;BME280;3044;43.232;27.972;2022-07-29T04:24:28;44934.81;;;-143.84;45.71
6032;BME280;3044;43.232;27.972;2022-07-29T04:26:55;44950.06;;;-143.84;44.99
6032;BME280;3044;43.232;27.972;2022-07-29T04:29:22;44906.25;;;-143.84;44.38
6032;BME280;3044;43.232;27.972;2022-07-29T04:31:51;44921.50;;;-143.84;43.49
6032;BME280;3044;43.232;27.972;2022-07-29T04:34:18;44917.69;;;-143.84;42.73
6032;BME280;3044;43.232;27.972;2022-07-29T04:36:45;44898.66;;;-143.84;42.65
6032;BME280;3044;43.232;27.972;2022-07-29T04:39:12;44940.53;;;-143.84;42.40
6032;BME280;3044;43.232;27.972;2022-07-29T04:41:40;44919.59;;;-143.84;42.26
6032;BME280;3044;43.232;27.972;2022-07-29T04:44:07;44911.97;;;-143.84;41.64
6032;BME280;3044;43.232;27.972;2022-07-29T04:46:35;44871.97;;;-143.84;40.31
6032;BME280;3044;43.232;27.972;2022-07-29T04:49:04;44911.97;;;-143.84;40.55
6032;BME280;3044;43.232;27.972;2022-07-29T04:51:31;44921.50;;;-143.84;40.32
6032;BME280;3044;43.232;27.972;2022-07-29T04:53:58;44887.22;;;-143.84;40.03
6032;BME280;3044;43.232;27.972;2022-07-29T04:56:26;44908.16;;;-143.84;39.63
6032;BME280;3044;43.232;27.972;2022-07-29T04:58:53;44891.03;;;-143.84;38.78
6032;BME280;3044;43.232;27.972;2022-07-29T05:01:20;44881.50;;;-143.84;38.89
6032;BME280;3044;43.232;27.972;2022-07-29T05:03:47;44892.94;;;-143.84;38.44
6032;BME280;3044;43.232;27.972;2022-07-29T05:06:16;44908.16;;;-143.84;38.05
6032;BME280;3044;43.232;27.972;2022-07-29T05:08:43;44866.28;;;-143.84;38.15
6032;BME280;3044;43.232;27.972;2022-07-29T05:11:10;44862.47;;;-143.84;36.99
6032;BME280;3044;43.232;27.972;2022-07-29T05:13:37;44892.94;;;-143.84;36.86
6032;BME280;3044;43.232;27.972;2022-07-29T05:16:05;44894.84;;;-143.84;36.99
6032;BME280;3044;43.232;27.972;2022-07-29T05:18:32;44891.03;;;-143.84;37.02
6032;BME280;3044;43.232;27.972;2022-07-29T05:21:00;44864.38;;;-143.84;36.25
6032;BME280;3044;43.232;27.972;2022-07-29T05:23:28;44870.09;;;-143.84;36.02
6032;BME280;3044;43.232;27.972;2022-07-29T05:25:55;44854.84;;;-143.84;35.59
6032;BME280;3044;43.232;27.972;2022-07-29T05:28:23;44875.78;;;-143.84;35.17
6032;BME280;3044;43.232;27.972;2022-07-29T05:30:50;44851.03;;;-143.84;34.91
6032;BME280;3044;43.232;27.972;2022-07-29T05:33:17;44843.44;;;-143.84;34.82
6032;BME280;3044;43.232;27.972;2022-07-29T05:35:44;44851.03;;;-143.84;34.03
6032;BME280;3044;43.232;27.972;2022-07-29T05:38:11;44854.84;;;-143.84;34.22
6032;BME280;3044;43.232;27.972;2022-07-29T05:40:40;44843.44;;;-143.84;33.94
6032;BME280;3044;43.232;27.972;2022-07-29T05:43:07;44837.72;;;-143.84;34.20
6032;BME280;3044;43.232;27.972;2022-07-29T05:45:34;44841.53;;;-143.84;34.00
6032;BME280;3044;43.232;27.972;2022-07-29T05:48:02;44849.13;;;-143.84;33.86
6032;BME280;3044;43.232;27.972;2022-07-29T05:50:30;44822.47;;;-143.84;33.97
6032;BME280;3044;43.232;27.972;2022-07-29T05:52:57;44822.47;;;-143.84;33.23
6032;BME280;3044;43.232;27.972;2022-07-29T05:55:24;44812.97;;;-143.84;32.62
6032;BME280;3044;43.232;27.972;2022-07-29T05:57:53;44847.22;;;-143.84;33.28
6032;BME280;3044;43.232;27.972;2022-07-29T06:00:20;44839.63;;;-143.84;32.95
6032;BME280;3044;43.232;27.972;2022-07-29T06:02:48;44835.81;;;-143.84;32.24
6032;BME280;3044;43.232;27.972;2022-07-29T06:05:15;44832.00;;;-143.84;32.48
6032;BME280;3044;43.232;27.972;2022-07-29T06:07:42;44807.25;;;-143.84;32.76
6032;BME280;3044;43.232;27.972;2022-07-29T06:10:10;44797.72;;;-143.84;32.71
6032;BME280;3044;43.232;27.972;2022-07-29T06:12:37;44788.22;;;-143.84;32.27
6032;BME280;3044;43.232;27.972;2022-07-29T06:15:07;44811.06;;;-143.84;31.77
6032;BME280;3044;43.232;27.972;2022-07-29T06:17:34;44795.81;;;-143.84;32.40
6032;BME280;3044;43.232;27.972;2022-07-29T06:20:02;44793.91;;;-143.84;31.35
6032;BME280;3044;43.232;27.972;2022-07-29T06:22:29;44803.44;;;-143.84;31.92
6032;BME280;3044;43.232;27.972;2022-07-29T06:25:05;44786.31;;;-143.84;31.47
6032;BME280;3044;43.232;27.972;2022-07-29T06:27:39;44782.50;;;-143.84;31.38
6032;BME280;3044;43.232;27.972;2022-07-29T06:30:16;44782.50;;;-143.84;31.04
6032;BME280;3044;43.232;27.972;2022-07-29T06:32:50;44795.81;;;-143.84;30.84
6032;BME280;3044;43.232;27.972;2022-07-29T06:35:20;44780.59;;;-143.84;30.47
6032;BME280;3044;43.232;27.972;2022-07-29T06:37:51;44755.84;;;-143.84;31.08
6032;BME280;3044;43.232;27.972;2022-07-29T06:40:18;44752.03;;;-143.84;29.57
6032;BME280;3044;43.232;27.972;2022-07-29T06:43:03;44748.22;;;-143.84;29.12
6032;BME280;3044;43.232;27.972;2022-07-29T06:45:34;44742.50;;;-143.84;29.30
6032;BME280;3044;43.232;27.972;2022-07-29T06:48:01;44748.22;;;-143.84;29.56
6032;BME280;3044;43.232;27.972;2022-07-29T06:50:28;44738.69;;;-143.84;29.90
6032;BME280;3044;43.232;27.972;2022-07-29T06:52:55;44778.69;;;-143.84;28.73
6032;BME280;3044;43.232;27.972;2022-07-29T06:55:23;44725.38;;;-143.84;28.76
6032;BME280;3044;43.232;27.972;2022-07-29T06:57:50;44713.94;;;-143.84;28.72
6032;BME280;3044;43.232;27.972;2022-07-29T07:00:17;44719.66;;;-143.84;28.16
6032;BME280;3044;43.232;27.972;2022-07-29T07:02:46;44761.56;;;-143.84;27.97
6032;BME280;3044;43.232;27.972;2022-07-29T07:05:13;44723.47;;;-143.84;29.50
6032;BME280;3044;43.232;27.972;2022-07-29T07:07:40;44753.94;;;-143.84;28.59
6032;BME280;3044;43.232;27.972;2022-07-29T07:10:08;44742.50;;;-143.84;27.83
6032;BME280;3044;43.232;27.972;2022-07-29T07:12:35;44740.59;;;-143.84;29.25
6032;BME280;3044;43.232;27.972;2022-07-29T07:15:03;44733.00;;;-143.84;29.36
6032;BME280;3044;43.232;27.972;2022-07-29T07:17:31;44738.69;;;-143.84;29.48
6032;BME280;3044;43.232;27.972;2022-07-29T07:19:59;44731.09;;;-143.84;29.37
6032;BME280;3044;43.232;27.972;2022-07-29T07:22:27;44706.34;;;-143.84;28.94
6032;BME280;3044;43.232;27.972;2022-07-29T07:24:54;44742.50;;;-143.84;28.99
6032;BME280;3044;43.232;27.972;2022-07-29T07:27:21;44759.66;;;-143.84;28.76
6032;BME280;3044;43.232;27.972;2022-07-29T07:29:48;44740.59;;;-143.84;29.01
6032;BME280;3044;43.232;27.972;2022-07-29T07:32:15;44748.22;;;-143.84;28.95
6032;BME280;3044;43.232;27.972;2022-07-29T07:34:43;44715.84;;;-143.84;28.78
6032;BME280;3044;43.232;27.972;2022-07-29T07:37:11;44738.69;;;-143.84;29.13
6032;BME280;3044;43.232;27.972;2022-07-29T07:39:40;44719.66;;;-143.84;27.94
6032;BME280;3044;43.232;27.972;2022-07-29T07:42:07;44721.56;;;-143.84;28.22
6032;BME280;3044;43.232;27.972;2022-07-29T07:44:35;44736.81;;;-143.84;28.76
6032;BME280;3044;43.232;27.972;2022-07-29T07:47:03;44757.75;;;-143.84;28.69
6032;BME280;3044;43.232;27.972;2022-07-29T07:49:30;44767.25;;;-143.84;29.35
6032;BME280;3044;43.232;27.972;2022-07-29T07:51:57;44746.31;;;-143.84;28.74
6032;BME280;3044;43.232;27.972;2022-07-29T07:54:26;44734.91;;;-143.84;28.47
6032;BME280;3044;43.232;27.972;2022-07-29T07:56:53;44721.56;;;-143.84;28.65
6032;BME280;3044;43.232;27.972;2022-07-29T07:59:20;44774.88;;;-143.84;28.33
6032;BME280;3044;43.232;27.972;2022-07-29T08:01:48;44769.16;;;-143.84;28.66
6032;BME280;3044;43.232;27.972;2022-07-29T08:04:15;44755.84;;;-143.84;28.95
6032;BME280;3044;43.232;27.972;2022-07-29T08:06:43;44740.59;;;-143.84;28.64
6032;BME280;3044;43.232;27.972;2022-07-29T08:09:10;44740.59;;;-143.84;29.32
6032;BME280;3044;43.232;27.972;2022-07-29T08:11:38;44757.75;;;-143.84;29.04
6032;BME280;3044;43.232;27.972;2022-07-29T08:14:06;44744.41;;;-143.84;29.09
6032;BME280;3044;43.232;27.972;2022-07-29T08:16:33;44752.03;;;-143.84;29.57
6032;BME280;3044;43.232;27.972;2022-07-29T08:19:00;44740.59;;;-143.84;28.94
6032;BME280;3044;43.232;27.972;2022-07-29T08:21:27;44748.22;;;-143.84;29.13
6032;BME280;3044;43.232;27.972;2022-07-29T08:23:54;44733.00;;;-143.84;29.78
6032;BME280;3044;43.232;27.972;2022-07-29T08:26:44;44738.69;;;-143.84;29.40
6032;BME280;3044;43.232;27.972;2022-07-29T08:29:11;44752.03;;;-143.84;29.28
6032;BME280;3044;43.232;27.972;2022-07-29T08:31:39;44748.22;;;-143.84;28.82
6032;BME280;3044;43.232;27.972;2022-07-29T08:34:07;44729.19;;;-143.84;29.10
6032;BME280;3044;43.232;27.972;2022-07-29T08:36:35;44740.59;;;-143.84;28.96
6032;BME280;3044;43.232;27.972;2022-07-29T08:39:02;44761.56;;;-143.84;28.53
6032;BME280;3044;43.232;27.972;2022-07-29T08:41:29;44784.41;;;-143.84;28.64
6032;BME280;3044;43.232;27.972;2022-07-29T08:43:58;44755.84;;;-143.84;28.70
6032;BME280;3044;43.232;27.972;2022-07-29T08:46:25;44752.03;;;-143.84;28.38
6032;BME280;3044;43.232;27.972;2022-07-29T08:48:53;44782.50;;;-143.84;28.95
6032;BME280;3044;43.232;27.972;2022-07-29T08:51:21;44761.56;;;-143.84;28.42
6032;BME280;3044;43.232;27.972;2022-07-29T08:53:49;44765.34;;;-143.84;28.30
6032;BME280;3044;43.232;27.972;2022-07-29T08:56:18;44763.47;;;-143.84;28.27
6032;BME280;3044;43.232;27.972;2022-07-29T08:58:46;44767.25;;;-143.84;28.85
6032;BME280;3044;43.232;27.972;2022-07-29T09:01:17;44765.34;;;-143.84;28.73
6032;BME280;3044;43.232;27.972;2022-07-29T09:03:45;44767.25;;;-143.84;28.36
6032;BME280;3044;43.232;27.972;2022-07-29T09:06:13;44795.81;;;-143.84;28.69
6032;BME280;3044;43.232;27.972;2022-07-29T09:08:41;44740.59;;;-143.84;28.48
6032;BME280;3044;43.232;27.972;2022-07-29T09:11:08;44752.03;;;-143.84;28.34
6032;BME280;3044;43.232;27.972;2022-07-29T09:13:37;44755.84;;;-143.84;28.36
6032;BME280;3044;43.232;27.972;2022-07-29T09:16:04;44744.41;;;-143.84;28.94
6032;BME280;3044;43.232;27.972;2022-07-29T09:18:37;44765.34;;;-143.84;28.53
6032;BME280;3044;43.232;27.972;2022-07-29T09:21:05;44740.59;;;-143.84;28.78
6032;BME280;3044;43.232;27.972;2022-07-29T09:24:04;44746.31;;;-143.84;28.99
6032;BME280;3044;43.232;27.972;2022-07-29T09:26:34;44729.19;;;-143.84;29.48
6032;BME280;3044;43.232;27.972;2022-07-29T09:29:09;44761.56;;;-143.84;29.98
6032;BME280;3044;43.232;27.972;2022-07-29T09:31:39;44744.41;;;-143.84;30.32
6032;BME280;3044;43.232;27.972;2022-07-29T09:34:08;44769.16;;;-143.84;30.42
6032;BME280;3044;43.232;27.972;2022-07-29T09:36:39;44744.41;;;-143.84;30.82
6032;BME280;3044;43.232;27.972;2022-07-29T09:39:07;44771.06;;;-143.84;31.18
6032;BME280;3044;43.232;27.972;2022-07-29T09:41:48;44742.50;;;-143.84;31.08
6032;BME280;3044;43.232;27.972;2022-07-29T09:44:15;44761.56;;;-143.84;30.97
6032;BME280;3044;43.232;27.972;2022-07-29T09:46:57;44759.66;;;-143.84;29.98
6032;BME280;3044;43.232;27.972;2022-07-29T09:49:29;44784.41;;;-143.84;30.00
6032;BME280;3044;43.232;27.972;2022-07-29T09:52:02;44772.97;;;-143.84;29.91
6032;BME280;3044;43.232;27.972;2022-07-29T09:54:30;44774.88;;;-143.84;29.49
6032;BME280;3044;43.232;27.972;2022-07-29T09:57:03;44774.88;;;-143.84;29.16
6032;BME280;3044;43.232;27.972;2022-07-29T09:59:31;44750.13;;;-143.84;29.40
6032;BME280;3044;43.232;27.972;2022-07-29T10:01:58;44782.50;;;-143.84;29.98
6032;BME280;3044;43.232;27.972;2022-07-29T10:04:38;44767.25;;;-143.84;29.78
6032;BME280;3044;43.232;27.972;2022-07-29T10:07:06;44753.94;;;-143.84;29.90
6032;BME280;3044;43.232;27.972;2022-07-29T10:09:33;44782.50;;;-143.84;29.84
6032;BME280;3044;43.232;27.972;2022-07-29T10:12:09;44793.91;;;-143.84;29.42
6032;BME280;3044;43.232;27.972;2022-07-29T10:14:37;44763.47;;;-143.84;29.98
6032;BME280;3044;43.232;27.972;2022-07-29T10:17:06;44772.97;;;-143.84;29.60
6032;BME280;3044;43.232;27.972;2022-07-29T10:19:37;44769.16;;;-143.84;29.64
6032;BME280;3044;43.232;27.972;2022-07-29T10:22:07;44748.22;;;-143.84;29.54
6032;BME280;3044;43.232;27.972;2022-07-29T10:24:35;44767.25;;;-143.84;29.20
6032;BME280;3044;43.232;27.972;2022-07-29T10:27:04;44801.53;;;-143.84;28.84
6032;BME280;3044;43.232;27.972;2022-07-29T10:29:32;44793.91;;;-143.84;29.03
6032;BME280;3044;43.232;27.972;2022-07-29T10:32:33;44774.88;;;-143.84;28.78
6032;BME280;3044;43.232;27.972;2022-07-29T10:35:15;44807.25;;;-143.84;29.14
6032;BME280;3044;43.232;27.972;2022-07-29T10:38:10;44814.88;;;-143.84;29.69
6032;BME280;3044;43.232;27.972;2022-07-29T10:40:52;44803.44;;;-143.84;29.35
6032;BME280;3044;43.232;27.972;2022-07-29T10:43:43;44801.53;;;-143.84;29.86
6032;BME280;3044;43.232;27.972;2022-07-29T10:46:12;44761.56;;;-143.84;30.07
6032;BME280;3044;43.232;27.972;2022-07-29T10:49:03;44792.00;;;-143.84;30.29
6032;BME280;3044;43.232;27.972;2022-07-29T10:54:39;44774.88;;;-143.84;30.43
6032;BME280;3044;43.232;27.972;2022-07-29T10:57:17;44826.28;;;-143.84;31.07
6032;BME280;3044;43.232;27.972;2022-07-29T10:59:47;44778.69;;;-143.84;31.75
6032;BME280;3044;43.232;27.972;2022-07-29T11:02:43;44792.00;;;-143.84;31.11
6032;BME280;3044;43.232;27.972;2022-07-29T11:05:14;44811.06;;;-143.84;31.83
6032;BME280;3044;43.232;27.972;2022-07-29T11:14:05;44790.13;;;-143.84;32.96
6032;BME280;3044;43.232;27.972;2022-07-29T11:17:00;44790.13;;;-143.84;32.22
6032;BME280;3044;43.232;27.972;2022-07-29T11:19:29;44795.81;;;-143.84;31.40
6032;BME280;3044;43.232;27.972;2022-07-29T11:21:56;44784.41;;;-143.84;32.06
6032;BME280;3044;43.232;27.972;2022-07-29T11:24:25;44788.22;;;-143.84;32.70
6032;BME280;3044;43.232;27.972;2022-07-29T11:27:17;44780.59;;;-143.84;33.34
6032;BME280;3044;43.232;27.972;2022-07-29T11:29:50;44801.53;;;-143.84;32.38
6032;BME280;3044;43.232;27.972;2022-07-29T11:32:18;44780.59;;;-143.84;31.71
6032;BME280;3044;43.232;27.972;2022-07-29T11:34:47;44765.34;;;-143.84;32.93
6032;BME280;3044;43.232;27.972;2022-07-29T11:37:19;44792.00;;;-143.84;31.78
6032;BME280;3044;43.232;27.972;2022-07-29T11:42:40;44793.91;;;-143.84;33.15
6032;BME280;3044;43.232;27.972;2022-07-29T11:45:10;44788.22;;;-143.84;31.97
6032;BME280;3044;43.232;27.972;2022-07-29T11:47:40;44797.72;;;-143.84;32.08
6032;BME280;3044;43.232;27.972;2022-07-29T11:50:10;44759.66;;;-143.84;32.80
6032;BME280;3044;43.232;27.972;2022-07-29T11:52:39;44782.50;;;-143.84;32.03
6032;BME280;3044;43.232;27.972;2022-07-29T11:55:12;44805.34;;;-143.84;31.58
6032;BME280;3044;43.232;27.972;2022-07-29T11:57:49;44786.31;;;-143.84;32.38
6032;BME280;3044;43.232;27.972;2022-07-29T12:00:23;44805.34;;;-143.84;32.14
6032;BME280;3044;43.232;27.972;2022-07-29T12:02:52;44807.25;;;-143.84;32.34
6032;BME280;3044;43.232;27.972;2022-07-29T12:05:19;44824.38;;;-143.84;32.94
6032;BME280;3044;43.232;27.972;2022-07-29T12:07:48;44801.53;;;-143.84;32.89
6032;BME280;3044;43.232;27.972;2022-07-29T12:10:15;44790.13;;;-143.84;32.43
6032;BME280;3044;43.232;27.972;2022-07-29T12:12:42;44820.56;;;-143.84;32.62
6032;BME280;3044;43.232;27.972;2022-07-29T12:15:19;44837.72;;;-143.84;32.74
6032;BME280;3044;43.232;27.972;2022-07-29T12:17:49;44835.81;;;-143.84;32.29
6032;BME280;3044;43.232;27.972;2022-07-29T12:20:23;44805.34;;;-143.84;32.13
6032;BME280;3044;43.232;27.972;2022-07-29T12:22:51;44820.56;;;-143.84;33.00
6032;BME280;3044;43.232;27.972;2022-07-29T12:25:20;44795.81;;;-143.84;31.49
6032;BME280;3044;43.232;27.972;2022-07-29T12:27:56;44782.50;;;-143.84;32.74
6032;BME280;3044;43.232;27.972;2022-07-29T12:30:38;44805.34;;;-143.84;32.13
6032;BME280;3044;43.232;27.972;2022-07-29T12:33:22;44860.56;;;-143.84;32.90
6032;BME280;3044;43.232;27.972;2022-07-29T12:35:51;44841.53;;;-143.84;34.52
6032;BME280;3044;43.232;27.972;2022-07-29T12:38:20;44839.63;;;-143.84;34.39
6032;BME280;3044;43.232;27.972;2022-07-29T12:40:49;44856.75;;;-143.84;34.45
6032;BME280;3044;43.232;27.972;2022-07-29T12:43:18;44837.72;;;-143.84;33.97
6032;BME280;3044;43.232;27.972;2022-07-29T12:45:48;44830.09;;;-143.84;34.60
6032;BME280;3044;43.232;27.972;2022-07-29T12:48:16;44843.44;;;-143.84;34.36
6032;BME280;3044;43.232;27.972;2022-07-29T12:50:54;44828.19;;;-143.84;34.17
6032;BME280;3044;43.232;27.972;2022-07-29T12:53:21;44854.84;;;-143.84;34.60
6032;BME280;3044;43.232;27.972;2022-07-29T12:55:50;44847.22;;;-143.84;34.51
6032;BME280;3044;43.232;27.972;2022-07-29T12:58:32;44854.84;;;-143.84;34.53
6032;BME280;3044;43.232;27.972;2022-07-29T13:01:07;44854.84;;;-143.84;34.42
6032;BME280;3044;43.232;27.972;2022-07-29T13:03:51;44860.56;;;-143.84;35.62
6032;BME280;3044;43.232;27.972;2022-07-29T13:06:36;44860.56;;;-143.84;35.82
6032;BME280;3044;43.232;27.972;2022-07-29T13:09:09;44839.63;;;-143.84;35.03
6032;BME280;3044;43.232;27.972;2022-07-29T13:11:39;44877.69;;;-143.84;34.47
6032;BME280;3044;43.232;27.972;2022-07-29T13:14:08;44832.00;;;-143.84;34.76
6032;BME280;3044;43.232;27.972;2022-07-29T13:19:34;44873.88;;;-143.84;33.68
6032;BME280;3044;43.232;27.972;2022-07-29T13:22:01;44852.94;;;-143.84;34.25